Portada
METAR-TAF:

METAR-TAF

Aeropuertos :

Casino, Australia

latitud: 28-52-39S, longitud: 153-03-07E, altitud: 21 m

Observación

El informe se hizo hace 12 minutos, a las 10:00 UTC
Viento 3 kt del sureste
Temperatura 18°C
Humedad 94%
Presión 1016 hPa

METAR: YCAS 081000Z AUTO 13003KT //// // ////// 18/17 Q1016

Hora: 20:12 (10:12 UTC)


TAF: falta

Observaciones y pronósticos meteorológicos de más de 4000 aeropuertos (mensajes METAR y TAF).

Los puntos amarillos y rojos representan las estaciones disponibles.

Ponga el ratón en el punto deseado para ver el nombre de la estación.

Haga clic para ver las observaciones y los pronósticos meteorológicos.

Para cambiar el mapa : haga clic en los botones verdes con una cruz de color negro para hacer un zoom, en el botón verde con un guión para alejar o en las flechas verdes para mapas adyacentes.


METAR-TAF: